Time;durP1;ratioP1;P1;durP2;ratioP2;P2;SDS_P1;SDS_P2;PMS_P1;PMS_P2;Temp;Humidity;BMP_temperature;BMP_pressure;BME280_temperature;BME280_humidity;BME280_pressure;Samples;Min_cycle;Max_cycle;Signal;HPM_P1;HPM_P2
2023/10/02 00:06:17;;;;;;;;;;;17.10;99.90;;;;;;6723901;88;20106;-81
2023/10/02 00:16:18;;;;;;;;;;;16.90;99.90;;;;;;6730503;88;20055;-79
2023/10/02 00:26:19;;;;;;;;;;;16.50;99.90;;;;;;6720338;88;20058;-82
2023/10/02 00:36:19;;;;;;;;;;;16.20;99.90;;;;;;6720641;88;20062;-81
2023/10/02 00:46:23;;;;;;;;;;;16.30;99.90;;;;;;6719549;88;20066;-80
2023/10/02 00:56:24;;;;;;;;;;;16.40;99.90;;;;;;6723865;88;20070;-81
2023/10/02 01:06:24;;;;;;;;;;;16.30;99.90;;;;;;6719415;88;20080;-80
2023/10/02 01:16:25;;;;;;;;;;;16.10;99.90;;;;;;6722045;88;20531;-81
2023/10/02 01:26:25;;;;;;;;;;;15.90;99.90;;;;;;6722058;88;20063;-80
2023/10/02 01:36:31;;;;;;;;;;;15.70;99.90;;;;;;6719994;88;20089;-80
2023/10/02 01:46:36;;;;;;;;;;;15.50;99.90;;;;;;6722901;88;20119;-81
2023/10/02 01:56:37;;;;;;;;;;;15.70;99.90;;;;;;6723089;88;20519;-81
2023/10/02 02:06:51;;;;;;;;;;;16.00;99.90;;;;;;6731504;88;20079;-80
2023/10/02 02:16:51;;;;;;;;;;;15.90;99.90;;;;;;6734431;88;20078;-80
2023/10/02 02:26:57;;;;;;;;;;;16.00;99.90;;;;;;6738330;88;20400;-80
2023/10/02 02:36:59;;;;;;;;;;;15.90;99.90;;;;;;6735910;88;20079;-80
2023/10/02 02:47:00;;;;;;;;;;;15.60;99.90;;;;;;6736290;88;20092;-79
2023/10/02 02:57:00;;;;;;;;;;;15.50;99.90;;;;;;6738112;88;20053;-80
2023/10/02 03:07:08;;;;;;;;;;;15.40;99.90;;;;;;6740193;88;20075;-79
2023/10/02 03:27:27;;;;;;;;;;;15.10;99.90;;;;;;6732910;88;20059;-80
2023/10/02 03:37:28;;;;;;;;;;;15.00;99.90;;;;;;6739651;88;20183;-80
2023/10/02 03:47:30;;;;;;;;;;;14.90;99.90;;;;;;6731110;88;20063;-79
2023/10/02 03:57:37;;;;;;;;;;;14.80;99.90;;;;;;6735701;88;20067;-83
2023/10/02 04:07:37;;;;;;;;;;;14.70;99.90;;;;;;6732251;88;20757;-80
2023/10/02 04:17:38;;;;;;;;;;;14.70;99.90;;;;;;6745189;88;20140;-79
2023/10/02 04:37:48;;;;;;;;;;;14.80;99.90;;;;;;6737286;88;20165;-78
2023/10/02 04:47:49;;;;;;;;;;;14.80;99.90;;;;;;6737999;88;20058;-79
2023/10/02 04:57:54;;;;;;;;;;;14.70;99.90;;;;;;6756915;88;20058;-81
2023/10/02 05:07:56;;;;;;;;;;;14.70;99.90;;;;;;6739355;88;20500;-79
2023/10/02 05:17:56;;;;;;;;;;;14.70;99.90;;;;;;6741895;88;20525;-79
2023/10/02 05:27:57;;;;;;;;;;;14.80;99.90;;;;;;6742629;88;20055;-78
2023/10/02 05:37:57;;;;;;;;;;;14.80;99.90;;;;;;6739633;88;20110;-78
2023/10/02 05:47:58;;;;;;;;;;;15.00;99.90;;;;;;6741832;88;20572;-79
2023/10/02 05:57:59;;;;;;;;;;;15.00;99.90;;;;;;6745450;88;20050;-79
2023/10/02 06:07:59;;;;;;;;;;;15.00;99.90;;;;;;6744217;88;20076;-78
2023/10/02 06:18:01;;;;;;;;;;;15.10;99.90;;;;;;6741348;88;20055;-78
2023/10/02 06:28:22;;;;;;;;;;;15.20;99.90;;;;;;6740881;88;20081;-79
2023/10/02 06:38:23;;;;;;;;;;;15.30;99.90;;;;;;6740155;88;20051;-77
2023/10/02 06:48:24;;;;;;;;;;;15.40;99.90;;;;;;6738071;88;20076;-80
2023/10/02 06:58:26;;;;;;;;;;;15.60;99.90;;;;;;6745682;88;20046;-79
2023/10/02 07:08:33;;;;;;;;;;;15.90;99.90;;;;;;6741042;88;20059;-79
2023/10/02 07:18:45;;;;;;;;;;;16.40;99.90;;;;;;6740952;88;20494;-79
2023/10/02 07:28:50;;;;;;;;;;;16.80;99.90;;;;;;6744920;88;20054;-81
2023/10/02 07:38:51;;;;;;;;;;;17.20;99.90;;;;;;6745425;88;20058;-81
2023/10/02 07:48:57;;;;;;;;;;;17.50;99.90;;;;;;6745639;88;20100;-80
2023/10/02 07:59:01;;;;;;;;;;;18.10;99.90;;;;;;6746782;88;20089;-79
2023/10/02 08:19:22;;;;;;;;;;;19.10;99.90;;;;;;6751781;88;20083;-80
2023/10/02 08:29:26;;;;;;;;;;;19.90;99.90;;;;;;6744920;88;20177;-80
2023/10/02 08:39:28;;;;;;;;;;;20.30;99.90;;;;;;6743410;88;20110;-80
2023/10/02 08:49:30;;;;;;;;;;;20.60;99.90;;;;;;6741431;88;20065;-81
2023/10/02 08:59:35;;;;;;;;;;;21.00;99.90;;;;;;6740513;88;20064;-80
2023/10/02 09:09:36;;;;;;;;;;;21.60;99.90;;;;;;6744334;88;20064;-81
2023/10/02 09:19:41;;;;;;;;;;;21.90;99.90;;;;;;6741840;88;20191;-81
2023/10/02 09:29:43;;;;;;;;;;;22.30;99.90;;;;;;6725182;88;20101;-79
2023/10/02 09:39:44;;;;;;;;;;;23.00;99.90;;;;;;6724517;88;20200;-81
2023/10/02 09:49:48;;;;;;;;;;;23.10;99.90;;;;;;6724359;88;20115;-81
2023/10/02 09:59:48;;;;;;;;;;;23.80;99.90;;;;;;6728453;88;20127;-80
2023/10/02 10:10:08;;;;;;;;;;;24.00;99.90;;;;;;6722646;88;20202;-80
2023/10/02 10:20:18;;;;;;;;;;;24.70;99.90;;;;;;6722315;88;20058;-79
2023/10/02 10:30:19;;;;;;;;;;;25.00;99.90;;;;;;6720659;88;20105;-81
2023/10/02 10:40:44;;;;;;;;;;;25.90;99.90;;;;;;6719284;88;20043;-80
2023/10/02 10:50:57;;;;;;;;;;;26.10;99.90;;;;;;6723832;88;20051;-80
2023/10/02 11:00:58;;;;;;;;;;;26.00;99.90;;;;;;6715674;88;20076;-82
2023/10/02 11:11:00;;;;;;;;;;;26.70;99.90;;;;;;6718775;88;20111;-80
2023/10/02 11:21:01;;;;;;;;;;;27.20;99.90;;;;;;6718863;88;20571;-80
2023/10/02 11:31:29;;;;;;;;;;;27.10;99.90;;;;;;6726388;88;20539;-81
2023/10/02 11:41:29;;;;;;;;;;;26.90;99.90;;;;;;6740741;88;20073;-80
2023/10/02 11:51:30;;;;;;;;;;;27.20;99.90;;;;;;6733836;88;20085;-80
2023/10/02 12:01:30;;;;;;;;;;;28.00;99.90;;;;;;6734761;88;20081;-81
2023/10/02 12:11:34;;;;;;;;;;;28.40;99.90;;;;;;6735608;88;20089;-80
2023/10/02 12:21:34;;;;;;;;;;;28.30;99.90;;;;;;6749029;88;20568;-80
2023/10/02 12:31:36;;;;;;;;;;;28.20;99.90;;;;;;6738814;88;20208;-82
2023/10/02 12:41:37;;;;;;;;;;;28.40;99.90;;;;;;6735823;88;20168;-81
2023/10/02 12:51:38;;;;;;;;;;;28.50;99.90;;;;;;6735132;88;20599;-80
2023/10/02 13:01:39;;;;;;;;;;;28.60;99.90;;;;;;6741326;88;20099;-81
2023/10/02 13:11:39;;;;;;;;;;;29.40;99.60;;;;;;6737111;88;20549;-81
2023/10/02 13:21:42;;;;;;;;;;;29.70;99.20;;;;;;6736758;88;20591;-80
2023/10/02 13:31:44;;;;;;;;;;;29.10;98.80;;;;;;6737354;88;20551;-79
2023/10/02 13:41:45;;;;;;;;;;;28.90;98.50;;;;;;6737243;88;20061;-81
2023/10/02 13:51:45;;;;;;;;;;;29.10;97.90;;;;;;6737879;88;20559;-80
2023/10/02 14:01:46;;;;;;;;;;;29.30;97.30;;;;;;6737966;88;20058;-79
2023/10/02 14:11:46;;;;;;;;;;;29.60;97.00;;;;;;6735191;88;20046;-79
2023/10/02 14:21:47;;;;;;;;;;;29.40;96.60;;;;;;6733038;88;20069;-79
2023/10/02 14:31:47;;;;;;;;;;;29.50;95.90;;;;;;6735542;88;20066;-79
2023/10/02 14:41:48;;;;;;;;;;;30.00;95.00;;;;;;6729101;88;20064;-80
2023/10/02 14:51:49;;;;;;;;;;;29.10;95.10;;;;;;6732348;88;20119;-80
2023/10/02 15:01:49;;;;;;;;;;;29.10;95.50;;;;;;6730281;88;20117;-79
2023/10/02 15:11:50;;;;;;;;;;;28.80;95.80;;;;;;6731540;88;20062;-80
2023/10/02 15:21:50;;;;;;;;;;;28.40;95.70;;;;;;6732696;88;20135;-80
2023/10/02 15:31:51;;;;;;;;;;;28.40;96.00;;;;;;6741458;88;20057;-80
2023/10/02 15:41:51;;;;;;;;;;;28.50;96.90;;;;;;6729332;88;20218;-80
2023/10/02 15:51:52;;;;;;;;;;;28.30;97.40;;;;;;6733920;88;20078;-80
2023/10/02 16:01:52;;;;;;;;;;;28.00;97.50;;;;;;6732880;88;20054;-80
2023/10/02 16:11:53;;;;;;;;;;;27.80;97.60;;;;;;6728960;88;20095;-80
2023/10/02 16:21:53;;;;;;;;;;;27.40;98.70;;;;;;6736237;88;20241;-79
2023/10/02 16:31:54;;;;;;;;;;;26.90;99.10;;;;;;6734285;88;20424;-80
2023/10/02 16:41:54;;;;;;;;;;;26.50;99.90;;;;;;6735222;88;20084;-80
2023/10/02 16:51:55;;;;;;;;;;;25.90;99.80;;;;;;6739350;88;20154;-81
2023/10/02 17:01:55;;;;;;;;;;;25.30;99.50;;;;;;6738009;88;20561;-80
2023/10/02 17:11:56;;;;;;;;;;;24.90;99.90;;;;;;6736393;88;20071;-79
2023/10/02 17:21:56;;;;;;;;;;;24.50;99.90;;;;;;6737401;88;20551;-79
2023/10/02 17:31:57;;;;;;;;;;;24.20;99.70;;;;;;6745151;88;20136;-80
2023/10/02 17:41:58;;;;;;;;;;;23.90;99.70;;;;;;6737042;88;20062;-80
2023/10/02 17:51:59;;;;;;;;;;;23.70;99.90;;;;;;6736572;88;20093;-80
2023/10/02 18:02:02;;;;;;;;;;;23.40;99.90;;;;;;6737962;88;20162;-80
2023/10/02 18:12:03;;;;;;;;;;;23.00;99.90;;;;;;6733662;88;20176;-79
2023/10/02 18:22:05;;;;;;;;;;;22.70;99.90;;;;;;6736278;88;20091;-79
2023/10/02 18:32:06;;;;;;;;;;;22.50;99.90;;;;;;6735746;88;20058;-79
2023/10/02 18:42:06;;;;;;;;;;;22.30;99.90;;;;;;6740257;88;20050;-79
2023/10/02 18:52:06;;;;;;;;;;;22.00;99.90;;;;;;6737334;88;20082;-80
2023/10/02 19:02:07;;;;;;;;;;;22.00;99.90;;;;;;6740719;88;20068;-80
2023/10/02 19:12:09;;;;;;;;;;;21.80;99.90;;;;;;6741829;88;20076;-80
2023/10/02 19:22:09;;;;;;;;;;;21.40;99.90;;;;;;6745085;88;20097;-81
2023/10/02 19:32:11;;;;;;;;;;;21.00;99.90;;;;;;6729462;88;20100;-80
2023/10/02 19:42:14;;;;;;;;;;;20.90;99.90;;;;;;6734749;88;20192;-80
2023/10/02 19:52:14;;;;;;;;;;;20.90;99.90;;;;;;6735292;88;20071;-81
2023/10/02 20:12:18;;;;;;;;;;;20.80;99.90;;;;;;6734853;88;20095;-79
2023/10/02 20:22:19;;;;;;;;;;;20.60;99.90;;;;;;6739973;88;20098;-80
2023/10/02 20:32:25;;;;;;;;;;;20.50;99.90;;;;;;6737488;88;20202;-79
2023/10/02 20:42:26;;;;;;;;;;;20.40;99.90;;;;;;6736299;88;20055;-79
2023/10/02 20:52:27;;;;;;;;;;;20.20;99.90;;;;;;6734262;88;20072;-81
2023/10/02 21:02:29;;;;;;;;;;;20.00;99.90;;;;;;6729919;88;20077;-80
2023/10/02 21:12:29;;;;;;;;;;;19.90;99.90;;;;;;6715320;88;20050;-80
2023/10/02 21:22:30;;;;;;;;;;;20.00;99.90;;;;;;6748308;88;20581;-80
2023/10/02 21:32:30;;;;;;;;;;;19.80;99.90;;;;;;6732659;88;20058;-81
2023/10/02 21:42:31;;;;;;;;;;;19.60;99.90;;;;;;6731203;88;20691;-80
2023/10/02 21:52:31;;;;;;;;;;;19.30;99.90;;;;;;6738280;88;20121;-80
2023/10/02 22:02:32;;;;;;;;;;;19.10;99.90;;;;;;6749285;88;20057;-80
2023/10/02 22:12:33;;;;;;;;;;;19.40;99.90;;;;;;6748129;88;20069;-82
2023/10/02 22:22:34;;;;;;;;;;;19.80;99.90;;;;;;6749792;88;20101;-81
2023/10/02 22:32:36;;;;;;;;;;;19.80;99.90;;;;;;6750264;88;20090;-79
2023/10/02 22:42:36;;;;;;;;;;;19.70;99.90;;;;;;6756163;88;20041;-80
2023/10/02 22:52:36;;;;;;;;;;;19.70;99.90;;;;;;6750925;88;20070;-81
2023/10/02 23:02:37;;;;;;;;;;;19.40;99.90;;;;;;6747353;88;20061;-80
2023/10/02 23:12:37;;;;;;;;;;;19.20;99.90;;;;;;6749153;88;20049;-79
2023/10/02 23:22:42;;;;;;;;;;;19.00;99.90;;;;;;6749724;88;20177;-80
2023/10/02 23:32:43;;;;;;;;;;;19.00;99.90;;;;;;6747766;88;20088;-80
2023/10/02 23:42:45;;;;;;;;;;;19.00;99.90;;;;;;6747316;88;20067;-80
2023/10/02 23:52:49;;;;;;;;;;;19.00;99.90;;;;;;6751530;88;20515;-81
